Time,TemperatureF,DewpointF,PressureIn,WindDirection,WindDirectionDegrees,WindSpeedMPH,WindSpeedGustMPH,Humidity,HourlyPrecipIn,Conditions,Clouds,dailyrainin,SolarRadiationWatts/m^2,SoftwareType,DateUTC
2013-07-16 00:00:00,72.3,70.2,30.20,West,273,0.0,5.0,93,0.00,,---,0.00,0.00,VWS V14.01,2013-07-16 04:00:00,
2013-07-16 00:01:00,71.1,69.3,30.21,West,273,0.0,0.0,94,0.00,,---,0.00,0.00,VWS V14.01,2013-07-16 04:01:00,
2013-07-16 00:06:00,70.9,69.1,30.21,West,273,0.0,0.0,94,0.00,,---,0.00,0.00,VWS V14.01,2013-07-16 04:06:00,
2013-07-16 00:11:00,70.8,69.0,30.21,West,273,0.0,0.0,94,0.00,,---,0.00,0.00,VWS V14.01,2013-07-16 04:11:00,
2013-07-16 00:16:00,70.7,68.9,30.21,West,273,0.0,0.0,94,0.00,,---,0.00,0.00,VWS V14.01,2013-07-16 04:16:00,
2013-07-16 00:21:00,70.6,68.8,30.21,West,273,0.0,0.0,94,0.00,,---,0.00,0.00,VWS V14.01,2013-07-16 04:21:00,
2013-07-16 00:26:00,70.4,68.6,30.21,West,273,0.0,0.0,94,0.00,,---,0.00,0.00,VWS V14.01,2013-07-16 04:26:00,
2013-07-16 00:30:00,71.8,70.0,30.21,West,273,0.0,0.0,94,0.00,,---,0.00,0.00,VWS V14.01,2013-07-16 04:30:00,
2013-07-16 00:31:00,70.4,68.6,30.21,West,273,0.0,0.0,94,0.00,,---,0.00,0.00,VWS V14.01,2013-07-16 04:31:00,
2013-07-16 00:36:00,70.2,68.4,30.21,West,273,0.0,0.0,94,0.00,,---,0.00,0.00,VWS V14.01,2013-07-16 04:36:00,
2013-07-16 00:41:00,70.1,68.3,30.21,West,273,0.0,0.0,94,0.00,,---,0.00,0.00,VWS V14.01,2013-07-16 04:41:00,
2013-07-16 00:46:00,70.0,68.5,30.21,West,273,0.0,0.0,95,0.00,,---,0.00,0.00,VWS V14.01,2013-07-16 04:46:00,
2013-07-16 00:51:00,69.9,68.4,30.21,West,273,0.0,0.0,95,0.00,,---,0.00,0.00,VWS V14.01,2013-07-16 04:51:00,
2013-07-16 00:56:00,69.8,68.3,30.21,West,273,0.0,0.0,95,0.00,,---,0.00,0.00,VWS V14.01,2013-07-16 04:56:00,
2013-07-16 01:00:00,71.1,69.3,30.21,West,273,0.0,0.0,94,0.00,,---,0.00,0.00,VWS V14.01,2013-07-16 05:00:00,
2013-07-16 01:01:00,69.7,68.2,30.21,West,273,0.0,0.0,95,0.00,,---,0.00,0.00,VWS V14.01,2013-07-16 05:01:00,
2013-07-16 01:06:00,69.6,68.1,30.21,West,273,0.0,0.0,95,0.00,,---,0.00,0.00,VWS V14.01,2013-07-16 05:06:00,
2013-07-16 01:11:00,69.5,68.0,30.21,West,273,0.0,0.0,95,0.00,,---,0.00,0.00,VWS V14.01,2013-07-16 05:11:00,
2013-07-16 01:16:00,69.4,67.9,30.21,West,273,0.0,0.0,95,0.00,,---,0.00,0.00,VWS V14.01,2013-07-16 05:16:00,
2013-07-16 01:21:00,69.3,67.8,30.21,West,273,0.0,0.0,95,0.00,,---,0.00,0.00,VWS V14.01,2013-07-16 05:21:00,
2013-07-16 01:26:00,69.2,67.7,30.21,West,273,0.0,0.0,95,0.00,,---,0.00,0.00,VWS V14.01,2013-07-16 05:26:00,
2013-07-16 01:30:00,70.4,68.6,30.21,West,273,0.0,0.0,94,0.00,,---,0.00,0.00,VWS V14.01,2013-07-16 05:30:00,
2013-07-16 01:31:00,69.0,67.5,30.21,West,273,0.0,0.0,95,0.00,,---,0.00,0.00,VWS V14.01,2013-07-16 05:31:00,
2013-07-16 01:36:00,68.9,67.4,30.21,West,273,0.0,0.0,95,0.00,,---,0.00,0.00,VWS V14.01,2013-07-16 05:36:00,
2013-07-16 01:41:00,68.8,67.3,30.21,West,273,0.0,0.0,95,0.00,,---,0.00,0.00,VWS V14.01,2013-07-16 05:41:00,
2013-07-16 01:46:00,68.7,67.2,30.21,West,273,0.0,0.0,95,0.00,,---,0.00,0.00,VWS V14.01,2013-07-16 05:46:00,
2013-07-16 01:51:00,68.6,67.1,30.21,West,273,0.0,0.0,95,0.00,,---,0.00,0.00,VWS V14.01,2013-07-16 05:51:00,
2013-07-16 01:56:00,68.6,67.1,30.21,West,273,0.0,0.0,95,0.00,,---,0.00,0.00,VWS V14.01,2013-07-16 05:56:00,
2013-07-16 02:00:00,69.8,68.3,30.21,West,273,0.0,0.0,95,0.00,,---,0.00,0.00,VWS V14.01,2013-07-16 06:00:00,
2013-07-16 02:01:00,68.5,67.0,30.21,West,273,0.0,0.0,95,0.00,,---,0.00,0.00,VWS V14.01,2013-07-16 06:01:00,
2013-07-16 02:06:00,68.5,67.3,30.21,West,273,0.0,0.0,96,0.00,,---,0.00,0.00,VWS V14.01,2013-07-16 06:06:00,
2013-07-16 02:11:00,68.4,67.2,30.21,West,273,0.0,0.0,96,0.00,,---,0.00,0.00,VWS V14.01,2013-07-16 06:11:00,
2013-07-16 02:16:00,68.3,67.1,30.21,West,273,0.0,0.0,96,0.00,,---,0.00,0.00,VWS V14.01,2013-07-16 06:16:00,
2013-07-16 02:21:00,68.3,67.1,30.21,West,273,0.0,0.0,96,0.00,,---,0.00,0.00,VWS V14.01,2013-07-16 06:21:00,
2013-07-16 02:26:00,68.2,67.0,30.21,West,273,0.0,0.0,96,0.00,,---,0.00,0.00,VWS V14.01,2013-07-16 06:26:00,
2013-07-16 02:30:00,69.0,67.5,30.21,West,273,0.0,0.0,95,0.00,,---,0.00,0.00,VWS V14.01,2013-07-16 06:30:00,
2013-07-16 02:31:00,68.1,66.6,30.21,West,273,0.0,0.0,95,0.00,,---,0.00,0.00,VWS V14.01,2013-07-16 06:31:00,
2013-07-16 02:36:00,68.0,66.8,30.21,West,273,0.0,0.0,96,0.00,,---,0.00,0.00,VWS V14.01,2013-07-16 06:36:00,
2013-07-16 02:41:00,67.9,66.7,30.21,West,273,0.0,0.0,96,0.00,,---,0.00,0.00,VWS V14.01,2013-07-16 06:41:00,
2013-07-16 02:46:00,67.7,66.5,30.21,West,273,0.0,0.0,96,0.00,,---,0.00,0.00,VWS V14.01,2013-07-16 06:46:00,
2013-07-16 02:51:00,67.7,66.5,30.21,West,273,0.0,0.0,96,0.00,,---,0.00,0.00,VWS V14.01,2013-07-16 06:51:00,
2013-07-16 02:56:00,67.6,66.4,30.21,West,273,0.0,0.0,96,0.00,,---,0.00,0.00,VWS V14.01,2013-07-16 06:56:00,
2013-07-16 03:00:00,68.5,67.0,30.21,West,273,0.0,0.0,95,0.00,,---,0.00,0.00,VWS V14.01,2013-07-16 07:00:00,
2013-07-16 03:01:00,67.4,65.9,30.21,West,273,0.0,0.0,95,0.00,,---,0.00,0.00,VWS V14.01,2013-07-16 07:01:00,
2013-07-16 03:06:00,67.2,65.7,30.21,West,273,0.0,0.0,95,0.00,,---,0.00,0.00,VWS V14.01,2013-07-16 07:06:00,
2013-07-16 03:11:00,67.1,65.9,30.21,West,273,0.0,0.0,96,0.00,,---,0.00,0.00,VWS V14.01,2013-07-16 07:11:00,
2013-07-16 03:16:00,67.0,65.8,30.21,West,273,0.0,0.0,96,0.00,,---,0.00,0.00,VWS V14.01,2013-07-16 07:16:00,
2013-07-16 03:21:00,66.8,65.6,30.21,West,273,0.0,0.0,96,0.00,,---,0.00,0.00,VWS V14.01,2013-07-16 07:21:00,
2013-07-16 03:26:00,66.7,65.5,30.21,West,273,0.0,0.0,96,0.00,,---,0.00,0.00,VWS V14.01,2013-07-16 07:26:00,
2013-07-16 03:30:00,68.1,66.9,30.21,West,273,0.0,0.0,96,0.00,,---,0.00,0.00,VWS V14.01,2013-07-16 07:30:00,
2013-07-16 03:31:00,66.6,65.4,30.21,West,273,0.0,0.0,96,0.00,,---,0.00,0.00,VWS V14.01,2013-07-16 07:31:00,
2013-07-16 03:36:00,66.5,65.3,30.21,West,273,0.0,0.0,96,0.00,,---,0.00,0.00,VWS V14.01,2013-07-16 07:36:00,
2013-07-16 03:41:00,66.5,65.3,30.21,West,273,0.0,0.0,96,0.00,,---,0.00,0.00,VWS V14.01,2013-07-16 07:41:00,
2013-07-16 03:46:00,66.4,65.2,30.21,West,273,0.0,0.0,96,0.00,,---,0.00,0.00,VWS V14.01,2013-07-16 07:46:00,
2013-07-16 03:51:00,66.3,65.1,30.21,West,273,0.0,0.0,96,0.00,,---,0.00,0.00,VWS V14.01,2013-07-16 07:51:00,
2013-07-16 03:56:00,66.3,65.1,30.21,West,273,0.0,0.0,96,0.00,,---,0.00,0.00,VWS V14.01,2013-07-16 07:56:00,
2013-07-16 04:00:00,67.4,65.9,30.21,West,273,0.0,0.0,95,0.00,,---,0.00,0.00,VWS V14.01,2013-07-16 08:00:00,
2013-07-16 04:01:00,66.3,65.1,30.21,West,273,0.0,0.0,96,0.00,,---,0.00,0.00,VWS V14.01,2013-07-16 08:01:00,
2013-07-16 04:06:00,66.2,65.0,30.21,West,273,0.0,0.0,96,0.00,,---,0.00,0.00,VWS V14.01,2013-07-16 08:06:00,
2013-07-16 04:11:00,66.1,64.9,30.21,West,273,0.0,0.0,96,0.00,,---,0.00,0.00,VWS V14.01,2013-07-16 08:11:00,
2013-07-16 04:16:00,66.0,64.8,30.21,West,273,0.0,0.0,96,0.00,,---,0.00,0.00,VWS V14.01,2013-07-16 08:16:00,
2013-07-16 04:21:00,66.0,64.8,30.21,West,273,0.0,0.0,96,0.00,,---,0.00,0.00,VWS V14.01,2013-07-16 08:21:00,
2013-07-16 04:26:00,65.9,64.7,30.21,West,273,0.0,0.0,96,0.00,,---,0.00,0.00,VWS V14.01,2013-07-16 08:26:00,
2013-07-16 04:30:00,66.6,65.4,30.21,West,273,0.0,0.0,96,0.00,,---,0.00,0.00,VWS V14.01,2013-07-16 08:30:00,
2013-07-16 04:31:00,65.8,64.9,30.21,West,273,0.0,0.0,97,0.00,,---,0.00,0.00,VWS V14.01,2013-07-16 08:31:00,
2013-07-16 04:36:00,65.8,64.9,30.21,West,273,0.0,0.0,97,0.00,,---,0.00,0.00,VWS V14.01,2013-07-16 08:36:00,
2013-07-16 04:43:00,65.7,64.5,30.21,West,273,0.0,0.0,96,0.00,,---,0.00,0.00,VWS V14.01,2013-07-16 08:43:00,
2013-07-16 04:48:00,65.6,64.4,30.21,West,273,0.0,0.0,96,0.00,,---,0.00,0.00,VWS V14.01,2013-07-16 08:48:00,
2013-07-16 04:53:00,65.6,64.7,30.21,West,273,0.0,0.0,97,0.00,,---,0.00,0.00,VWS V14.01,2013-07-16 08:53:00,
2013-07-16 04:58:00,65.6,64.4,30.21,West,273,0.0,0.0,96,0.00,,---,0.00,0.00,VWS V14.01,2013-07-16 08:58:00,
2013-07-16 05:00:00,66.3,65.1,30.21,West,273,0.0,0.0,96,0.00,,---,0.00,0.00,VWS V14.01,2013-07-16 09:00:00,
2013-07-16 05:03:00,65.5,64.6,30.21,West,273,0.0,0.0,97,0.00,,---,0.00,0.00,VWS V14.01,2013-07-16 09:03:00,
2013-07-16 05:08:00,65.4,64.5,30.22,West,273,0.0,0.0,97,0.00,,---,0.00,0.00,VWS V14.01,2013-07-16 09:08:00,
2013-07-16 05:13:00,65.4,64.5,30.22,West,273,0.0,0.0,97,0.00,,---,0.00,0.00,VWS V14.01,2013-07-16 09:13:00,
2013-07-16 05:18:00,65.2,64.3,30.22,West,273,0.0,0.0,97,0.00,,---,0.00,0.00,VWS V14.01,2013-07-16 09:18:00,
2013-07-16 05:23:00,65.1,64.2,30.22,West,273,0.0,0.0,97,0.00,,---,0.00,0.00,VWS V14.01,2013-07-16 09:23:00,
2013-07-16 05:28:00,65.1,64.2,30.22,West,273,0.0,0.0,97,0.00,,---,0.00,0.00,VWS V14.01,2013-07-16 09:28:00,
2013-07-16 05:30:00,65.9,64.7,30.21,West,273,0.0,0.0,96,0.00,,---,0.00,0.00,VWS V14.01,2013-07-16 09:30:00,
2013-07-16 05:33:00,65.0,64.1,30.22,West,273,0.0,0.0,97,0.00,,---,0.00,0.00,VWS V14.01,2013-07-16 09:33:00,
2013-07-16 05:38:00,64.9,64.0,30.22,West,273,0.0,0.0,97,0.00,,---,0.00,5.00,VWS V14.01,2013-07-16 09:38:00,
2013-07-16 05:43:00,64.8,63.9,30.23,West,273,0.0,0.0,97,0.00,,---,0.00,7.00,VWS V14.01,2013-07-16 09:43:00,
2013-07-16 05:48:00,64.9,64.0,30.23,West,273,0.0,0.0,97,0.00,,---,0.00,9.00,VWS V14.01,2013-07-16 09:48:00,
2013-07-16 05:53:00,64.8,63.9,30.23,West,273,0.0,0.0,97,0.00,,---,0.00,12.00,VWS V14.01,2013-07-16 09:53:00,
2013-07-16 05:58:00,64.8,63.9,30.23,West,273,0.0,0.0,97,0.00,,---,0.00,14.00,VWS V14.01,2013-07-16 09:58:00,
2013-07-16 06:00:00,65.5,64.3,30.21,West,273,0.0,0.0,96,0.00,,---,0.00,0.00,VWS V14.01,2013-07-16 10:00:00,
2013-07-16 06:03:00,64.8,63.9,30.23,West,273,0.0,0.0,97,0.00,,---,0.00,18.00,VWS V14.01,2013-07-16 10:03:00,
2013-07-16 06:08:00,64.8,63.9,30.23,West,273,0.0,0.0,97,0.00,,---,0.00,21.00,VWS V14.01,2013-07-16 10:08:00,
2013-07-16 06:13:00,64.8,63.9,30.23,West,273,0.0,0.0,97,0.00,,---,0.00,25.00,VWS V14.01,2013-07-16 10:13:00,
2013-07-16 06:18:00,64.9,64.0,30.23,West,273,0.0,0.0,97,0.00,,---,0.00,26.00,VWS V14.01,2013-07-16 10:18:00,
2013-07-16 06:23:00,65.0,64.1,30.23,West,273,0.0,0.0,97,0.00,,---,0.00,30.00,VWS V14.01,2013-07-16 10:23:00,
2013-07-16 06:28:00,65.1,64.2,30.24,West,273,0.0,0.0,97,0.00,,---,0.00,33.00,VWS V14.01,2013-07-16 10:28:00,
2013-07-16 06:30:00,65.0,64.1,30.22,West,273,0.0,0.0,97,0.00,,---,0.00,0.00,VWS V14.01,2013-07-16 10:30:00,
2013-07-16 06:33:00,65.2,64.3,30.24,West,273,0.0,0.0,97,0.00,,---,0.00,35.00,VWS V14.01,2013-07-16 10:33:00,
2013-07-16 06:38:00,65.4,64.5,30.24,West,273,0.0,0.0,97,0.00,,---,0.00,46.00,VWS V14.01,2013-07-16 10:38:00,
2013-07-16 06:43:00,65.6,64.7,30.24,West,273,0.0,0.0,97,0.00,,---,0.00,102.00,VWS V14.01,2013-07-16 10:43:00,
2013-07-16 06:48:00,66.0,65.4,30.24,West,273,0.0,0.0,98,0.00,,---,0.00,114.00,VWS V14.01,2013-07-16 10:48:00,
2013-07-16 06:53:00,66.6,66.0,30.24,West,273,0.0,0.0,98,0.00,,---,0.00,130.00,VWS V14.01,2013-07-16 10:53:00,
2013-07-16 06:58:00,67.1,66.5,30.24,West,273,0.0,0.0,98,0.00,,---,0.00,144.00,VWS V14.01,2013-07-16 10:58:00,
2013-07-16 07:00:00,64.8,63.9,30.23,West,273,0.0,0.0,97,0.00,,---,0.00,16.00,VWS V14.01,2013-07-16 11:00:00,
2013-07-16 07:03:00,67.6,67.0,30.24,West,273,0.0,0.0,98,0.00,,---,0.00,158.00,VWS V14.01,2013-07-16 11:03:00,
2013-07-16 07:08:00,68.2,67.3,30.24,West,273,0.0,0.0,97,0.00,,---,0.00,171.00,VWS V14.01,2013-07-16 11:08:00,
2013-07-16 07:13:00,68.9,68.0,30.24,West,273,0.0,0.0,97,0.00,,---,0.00,185.00,VWS V14.01,2013-07-16 11:13:00,
2013-07-16 07:18:00,69.5,68.3,30.24,West,273,0.0,0.0,96,0.00,,---,0.00,200.00,VWS V14.01,2013-07-16 11:18:00,
2013-07-16 07:23:00,70.1,68.3,30.25,West,273,0.0,0.0,94,0.00,,---,0.00,214.00,VWS V14.01,2013-07-16 11:23:00,
2013-07-16 07:28:00,70.7,68.9,30.25,West,273,0.0,0.0,94,0.00,,---,0.00,234.00,VWS V14.01,2013-07-16 11:28:00,
2013-07-16 07:30:00,65.1,64.2,30.23,West,273,0.0,0.0,97,0.00,,---,0.00,33.00,VWS V14.01,2013-07-16 11:30:00,
2013-07-16 07:33:00,71.2,68.8,30.25,West,273,0.0,0.0,92,0.00,,---,0.00,253.00,VWS V14.01,2013-07-16 11:33:00,
2013-07-16 07:38:00,71.6,69.5,30.25,West,273,0.0,0.0,93,0.00,,---,0.00,271.00,VWS V14.01,2013-07-16 11:38:00,
2013-07-16 07:43:00,72.1,69.3,30.25,West,273,0.0,0.0,91,0.00,,---,0.00,288.00,VWS V14.01,2013-07-16 11:43:00,
2013-07-16 07:48:00,72.7,69.9,30.25,West,273,0.0,0.0,91,0.00,,---,0.00,301.00,VWS V14.01,2013-07-16 11:48:00,
2013-07-16 07:57:00,73.9,70.1,30.25,West,273,0.0,0.0,88,0.00,,---,0.00,325.00,VWS V14.01,2013-07-16 11:57:00,
2013-07-16 08:00:00,67.2,66.6,30.24,West,273,0.0,0.0,98,0.00,,---,0.00,146.00,VWS V14.01,2013-07-16 12:00:00,
2013-07-16 08:02:00,74.6,70.5,30.25,West,273,0.0,0.0,87,0.00,,---,0.00,341.00,VWS V14.01,2013-07-16 12:02:00,
2013-07-16 08:07:00,75.3,70.5,30.25,West,273,0.0,0.0,85,0.00,,---,0.00,359.00,VWS V14.01,2013-07-16 12:07:00,
2013-07-16 08:12:00,75.8,70.6,30.25,West,273,0.0,0.0,84,0.00,,---,0.00,374.00,VWS V14.01,2013-07-16 12:12:00,
2013-07-16 08:17:00,76.4,71.2,30.25,West,273,0.0,0.0,84,0.00,,---,0.00,388.00,VWS V14.01,2013-07-16 12:17:00,
2013-07-16 08:22:00,76.9,71.3,30.25,West,273,0.0,0.0,83,0.00,,---,0.00,403.00,VWS V14.01,2013-07-16 12:22:00,
2013-07-16 08:27:00,77.5,71.6,30.25,West,273,0.0,0.0,82,0.00,,---,0.00,415.00,VWS V14.01,2013-07-16 12:27:00,
2013-07-16 08:30:00,71.0,69.2,30.25,West,273,0.0,0.0,94,0.00,,---,0.00,236.00,VWS V14.01,2013-07-16 12:30:00,
2013-07-16 08:32:00,77.9,71.6,30.25,West,273,0.0,0.0,81,0.00,,---,0.00,431.00,VWS V14.01,2013-07-16 12:32:00,
2013-07-16 08:37:00,78.4,72.1,30.25,West,273,0.0,0.0,81,0.00,,---,0.00,445.00,VWS V14.01,2013-07-16 12:37:00,
2013-07-16 08:42:00,78.9,71.8,30.25,West,273,0.0,0.0,79,0.00,,---,0.00,461.00,VWS V14.01,2013-07-16 12:42:00,
2013-07-16 08:47:00,79.6,71.8,30.25,West,273,0.0,0.0,77,0.00,,---,0.00,476.00,VWS V14.01,2013-07-16 12:47:00,
2013-07-16 08:52:00,80.2,71.9,30.25,West,273,0.0,0.0,76,0.00,,---,0.00,487.00,VWS V14.01,2013-07-16 12:52:00,
2013-07-16 08:57:00,80.7,72.4,30.25,SE,135,0.0,2.0,76,0.00,,---,0.00,503.00,VWS V14.01,2013-07-16 12:57:00,
2013-07-16 09:00:00,74.2,70.4,30.25,West,273,0.0,0.0,88,0.00,,---,0.00,336.00,VWS V14.01,2013-07-16 13:00:00,
2013-07-16 09:02:00,81.1,72.4,30.25,SE,135,0.0,0.0,75,0.00,,---,0.00,515.00,VWS V14.01,2013-07-16 13:02:00,
2013-07-16 09:07:00,81.2,72.1,30.25,SSW,201,0.0,2.0,74,0.00,,---,0.00,529.00,VWS V14.01,2013-07-16 13:07:00,
2013-07-16 09:12:00,81.3,72.2,30.25,SSW,201,0.0,2.0,74,0.00,,---,0.00,543.00,VWS V14.01,2013-07-16 13:12:00,
2013-07-16 09:17:00,81.5,72.0,30.25,WNW,292,0.0,4.0,73,0.00,,---,0.00,559.00,VWS V14.01,2013-07-16 13:17:00,
2013-07-16 09:22:00,81.2,71.3,30.24,West,281,0.0,4.0,72,0.00,,---,0.00,571.00,VWS V14.01,2013-07-16 13:22:00,
2013-07-16 09:27:00,81.0,71.1,30.24,West,280,0.0,4.0,72,0.00,,---,0.00,587.00,VWS V14.01,2013-07-16 13:27:00,
2013-07-16 09:30:00,77.8,71.5,30.25,West,273,0.0,0.0,81,0.00,,---,0.00,424.00,VWS V14.01,2013-07-16 13:30:00,
2013-07-16 09:32:00,81.0,71.5,30.24,West,279,0.0,3.0,73,0.00,,---,0.00,598.00,VWS V14.01,2013-07-16 13:32:00,
2013-07-16 09:37:00,81.4,72.3,30.25,West,275,3.0,4.0,74,0.00,,---,0.00,612.00,VWS V14.01,2013-07-16 13:37:00,
2013-07-16 09:42:00,81.4,71.5,30.24,WNW,291,4.0,5.0,72,0.00,,---,0.00,619.00,VWS V14.01,2013-07-16 13:42:00,
2013-07-16 09:47:00,81.6,71.3,30.24,West,277,0.0,5.0,71,0.00,,---,0.00,633.00,VWS V14.01,2013-07-16 13:47:00,
2013-07-16 09:52:00,81.8,72.7,30.24,West,277,0.0,5.0,74,0.00,,---,0.00,643.00,VWS V14.01,2013-07-16 13:52:00,
2013-07-16 09:57:00,82.4,72.5,30.24,WSW,250,0.0,5.0,72,0.00,,---,0.00,657.00,VWS V14.01,2013-07-16 13:57:00,
2013-07-16 10:00:00,81.0,73.1,30.25,SE,135,0.0,2.0,77,0.00,,---,0.00,506.00,VWS V14.01,2013-07-16 14:00:00,
2013-07-16 10:02:00,82.7,73.2,30.24,West,260,0.0,0.0,73,0.00,,---,0.00,670.00,VWS V14.01,2013-07-16 14:02:00,
2013-07-16 10:07:00,82.6,71.8,30.24,West,268,0.0,3.0,70,0.00,,---,0.00,680.00,VWS V14.01,2013-07-16 14:07:00,
2013-07-16 10:12:00,82.7,73.2,30.24,SE,128,0.0,3.0,73,0.00,,---,0.00,691.00,VWS V14.01,2013-07-16 14:12:00,
2013-07-16 10:17:00,83.1,71.9,30.24,ESE,104,1.0,3.0,69,0.00,,---,0.00,703.00,VWS V14.01,2013-07-16 14:17:00,
2013-07-16 10:22:00,83.5,72.7,30.24,WSW,251,0.0,6.0,70,0.00,,---,0.00,712.00,VWS V14.01,2013-07-16 14:22:00,
2013-07-16 10:27:00,83.6,73.2,30.24,West,264,0.0,8.0,71,0.00,,---,0.00,722.00,VWS V14.01,2013-07-16 14:27:00,
2013-07-16 10:30:00,81.0,71.9,30.24,West,279,0.0,4.0,74,0.00,,---,0.00,591.00,VWS V14.01,2013-07-16 14:30:00,
2013-07-16 10:32:00,83.8,71.7,30.24,East,84,0.0,3.0,67,0.00,,---,0.00,731.00,VWS V14.01,2013-07-16 14:32:00,
2013-07-16 10:37:00,84.0,72.3,30.24,WNW,284,0.0,4.0,68,0.00,,---,0.00,742.00,VWS V14.01,2013-07-16 14:37:00,
2013-07-16 10:42:00,84.3,71.7,30.23,WNW,293,0.0,5.0,66,0.00,,---,0.00,752.00,VWS V14.01,2013-07-16 14:42:00,
2013-07-16 10:47:00,84.5,72.3,30.23,WNW,293,0.0,5.0,67,0.00,,---,0.00,763.00,VWS V14.01,2013-07-16 14:47:00,
2013-07-16 10:52:00,84.8,74.4,30.23,WNW,286,1.0,5.0,71,0.00,,---,0.00,772.00,VWS V14.01,2013-07-16 14:52:00,
2013-07-16 10:57:00,84.6,72.9,30.23,West,264,0.0,5.0,68,0.00,,---,0.00,780.00,VWS V14.01,2013-07-16 14:57:00,
2013-07-16 11:00:00,82.5,72.2,30.24,West,260,0.0,5.0,71,0.00,,---,0.00,661.00,VWS V14.01,2013-07-16 15:00:00,
2013-07-16 11:02:00,84.8,73.5,30.23,East,90,0.0,0.0,69,0.00,,---,0.00,795.00,VWS V14.01,2013-07-16 15:02:00,
2013-07-16 11:07:00,85.2,73.9,30.23,SE,126,0.0,1.0,69,0.00,,---,0.00,800.00,VWS V14.01,2013-07-16 15:07:00,
2013-07-16 11:12:00,85.5,74.6,30.23,East,94,0.0,3.0,70,0.00,,---,0.00,802.00,VWS V14.01,2013-07-16 15:12:00,
2013-07-16 11:17:00,86.0,75.5,30.23,East,84,1.0,5.0,71,0.00,,---,0.00,812.00,VWS V14.01,2013-07-16 15:17:00,
2013-07-16 11:22:00,86.4,74.2,30.23,East,79,1.0,5.0,67,0.00,,---,0.00,819.00,VWS V14.01,2013-07-16 15:22:00,
2013-07-16 11:27:00,86.8,73.2,30.23,NW,317,0.0,5.0,64,0.00,,---,0.00,830.00,VWS V14.01,2013-07-16 15:27:00,
2013-07-16 11:30:00,83.7,71.1,30.24,East,81,2.0,8.0,66,0.00,,---,0.00,726.00,VWS V14.01,2013-07-16 15:30:00,
2013-07-16 11:32:00,86.9,74.2,30.23,ESE,112,0.0,4.0,66,0.00,,---,0.00,830.00,VWS V14.01,2013-07-16 15:32:00,
2013-07-16 11:37:00,86.9,74.6,30.23,SE,139,4.0,5.0,67,0.00,,---,0.00,840.00,VWS V14.01,2013-07-16 15:37:00,
2013-07-16 11:42:00,86.8,72.2,30.23,SW,236,0.0,5.0,62,0.00,,---,0.00,840.00,VWS V14.01,2013-07-16 15:42:00,
2013-07-16 11:47:00,87.0,73.4,30.23,West,269,0.0,5.0,64,0.00,,---,0.00,849.00,VWS V14.01,2013-07-16 15:47:00,
2013-07-16 11:52:00,86.9,74.6,30.23,North,355,0.0,5.0,67,0.00,,---,0.00,854.00,VWS V14.01,2013-07-16 15:52:00,
2013-07-16 11:57:00,87.1,74.4,30.23,WNW,302,0.0,5.0,66,0.00,,---,0.00,860.00,VWS V14.01,2013-07-16 15:57:00,
2013-07-16 12:00:00,84.6,72.9,30.23,East,90,0.0,5.0,68,0.00,,---,0.00,789.00,VWS V14.01,2013-07-16 16:00:00,
2013-07-16 12:02:00,87.2,74.0,30.23,ENE,70,2.0,5.0,65,0.00,,---,0.00,865.00,VWS V14.01,2013-07-16 16:02:00,
2013-07-16 12:07:00,87.4,73.7,30.23,ENE,64,0.0,5.0,64,0.00,,---,0.00,865.00,VWS V14.01,2013-07-16 16:07:00,
2013-07-16 12:12:00,87.2,73.1,30.22,NW,306,0.0,5.0,63,0.00,,---,0.00,867.00,VWS V14.01,2013-07-16 16:12:00,
2013-07-16 12:17:00,87.3,73.2,30.22,NE,41,0.0,5.0,63,0.00,,---,0.00,877.00,VWS V14.01,2013-07-16 16:17:00,
2013-07-16 12:22:00,87.2,74.0,30.22,WNW,284,2.0,5.0,65,0.00,,---,0.00,877.00,VWS V14.01,2013-07-16 16:22:00,
2013-07-16 12:27:00,87.2,74.9,30.22,ENE,57,0.0,5.0,67,0.00,,---,0.00,900.00,VWS V14.01,2013-07-16 16:27:00,
2013-07-16 12:30:00,86.8,73.2,30.23,ESE,108,4.0,5.0,64,0.00,,---,0.00,830.00,VWS V14.01,2013-07-16 16:30:00,
2013-07-16 12:32:00,87.4,74.2,30.22,West,278,3.0,5.0,65,0.00,,---,0.00,879.00,VWS V14.01,2013-07-16 16:32:00,
2013-07-16 12:37:00,87.5,72.9,30.22,NE,51,0.0,5.0,62,0.00,,---,0.00,895.00,VWS V14.01,2013-07-16 16:37:00,
2013-07-16 12:42:00,87.8,74.6,30.22,WNW,297,0.0,5.0,65,0.00,,---,0.00,896.00,VWS V14.01,2013-07-16 16:42:00,
2013-07-16 12:47:00,87.9,73.3,30.22,ENE,74,3.0,8.0,62,0.00,,---,0.00,879.00,VWS V14.01,2013-07-16 16:47:00,
2013-07-16 12:52:00,88.1,73.9,30.22,NE,55,0.0,8.0,63,0.00,,---,0.00,886.00,VWS V14.01,2013-07-16 16:52:00,
2013-07-16 12:57:00,88.1,74.4,30.22,WNW,286,0.0,8.0,64,0.00,,---,0.00,886.00,VWS V14.01,2013-07-16 16:57:00,
2013-07-16 13:00:00,87.1,73.9,30.23,ESE,118,0.0,5.0,65,0.00,,---,0.00,861.00,VWS V14.01,2013-07-16 17:00:00,
2013-07-16 13:02:00,88.1,74.4,30.21,West,279,0.0,0.0,64,0.00,,---,0.00,895.00,VWS V14.01,2013-07-16 17:02:00,
2013-07-16 13:07:00,88.0,71.9,30.21,West,273,0.0,2.0,59,0.00,,---,0.00,895.00,VWS V14.01,2013-07-16 17:07:00,
2013-07-16 13:12:00,88.2,74.5,30.21,ENE,65,4.0,7.0,64,0.00,,---,0.00,884.00,VWS V14.01,2013-07-16 17:12:00,
2013-07-16 13:17:00,88.2,73.6,30.21,NNE,28,1.0,7.0,62,0.00,,---,0.00,881.00,VWS V14.01,2013-07-16 17:17:00,
2013-07-16 13:22:00,88.3,73.2,30.21,East,84,0.0,7.0,61,0.00,,---,0.00,898.00,VWS V14.01,2013-07-16 17:22:00,
2013-07-16 13:27:00,88.4,74.2,30.21,ENE,60,3.0,7.0,63,0.00,,---,0.00,900.00,VWS V14.01,2013-07-16 17:27:00,
2013-07-16 13:30:00,87.3,73.6,30.22,East,83,0.0,5.0,64,0.00,,---,0.00,889.00,VWS V14.01,2013-07-16 17:30:00,
2013-07-16 13:32:00,88.4,72.3,30.21,ENE,69,0.0,4.0,59,0.00,,---,0.00,918.00,VWS V14.01,2013-07-16 17:32:00,
2013-07-16 13:37:00,88.5,74.3,30.21,West,268,0.0,4.0,63,0.00,,---,0.00,886.00,VWS V14.01,2013-07-16 17:37:00,
2013-07-16 13:42:00,88.6,72.4,30.21,WNW,302,1.0,5.0,59,0.00,,---,0.00,879.00,VWS V14.01,2013-07-16 17:42:00,
2013-07-16 13:47:00,88.7,71.5,30.20,NNE,27,0.0,5.0,57,0.00,,---,0.00,881.00,VWS V14.01,2013-07-16 17:47:00,
2013-07-16 13:52:00,88.4,71.2,30.21,West,272,0.0,5.0,57,0.00,,---,0.00,870.00,VWS V14.01,2013-07-16 17:52:00,
2013-07-16 13:57:00,88.3,70.6,30.20,South,169,0.0,5.0,56,0.00,,---,0.00,867.00,VWS V14.01,2013-07-16 17:57:00,
2013-07-16 14:00:00,88.1,72.0,30.21,West,279,0.0,8.0,59,0.00,,---,0.00,889.00,VWS V14.01,2013-07-16 18:00:00,
2013-07-16 14:02:00,88.4,71.2,30.20,West,279,0.0,7.0,57,0.00,,---,0.00,863.00,VWS V14.01,2013-07-16 18:02:00,
2013-07-16 14:07:00,88.7,71.5,30.20,WSW,257,0.0,7.0,57,0.00,,---,0.00,867.00,VWS V14.01,2013-07-16 18:07:00,
2013-07-16 14:12:00,89.2,70.4,30.20,ENE,76,5.0,9.0,54,0.00,,---,0.00,856.00,VWS V14.01,2013-07-16 18:12:00,
2013-07-16 14:17:00,88.9,68.4,30.20,ENE,76,3.0,9.0,51,0.00,,---,0.00,853.00,VWS V14.01,2013-07-16 18:17:00,
2013-07-16 14:22:00,88.6,67.6,30.20,ENE,63,4.0,9.0,50,0.00,,---,0.00,849.00,VWS V14.01,2013-07-16 18:22:00,
2013-07-16 14:27:00,88.6,68.7,30.20,NNW,348,0.0,9.0,52,0.00,,---,0.00,842.00,VWS V14.01,2013-07-16 18:27:00,
2013-07-16 14:30:00,88.4,71.2,30.21,NE,49,0.0,7.0,57,0.00,,---,0.00,895.00,VWS V14.01,2013-07-16 18:30:00,
2013-07-16 14:32:00,88.6,69.3,30.20,ENE,63,7.0,7.0,53,0.00,,---,0.00,833.00,VWS V14.01,2013-07-16 18:32:00,
2013-07-16 14:37:00,88.7,68.3,30.19,West,265,0.0,7.0,51,0.00,,---,0.00,821.00,VWS V14.01,2013-07-16 18:37:00,
2013-07-16 14:42:00,88.7,68.3,30.19,SSW,202,0.0,7.0,51,0.00,,---,0.00,831.00,VWS V14.01,2013-07-16 18:42:00,
2013-07-16 14:47:00,89.0,69.1,30.19,SE,131,0.0,7.0,52,0.00,,---,0.00,816.00,VWS V14.01,2013-07-16 18:47:00,
2013-07-16 14:52:00,89.0,69.1,30.19,WSW,238,1.0,7.0,52,0.00,,---,0.00,803.00,VWS V14.01,2013-07-16 18:52:00,
2013-07-16 14:57:00,89.2,70.4,30.19,NE,54,0.0,7.0,54,0.00,,---,0.00,788.00,VWS V14.01,2013-07-16 18:57:00,
2013-07-16 15:00:00,88.3,71.2,30.20,NW,309,0.0,5.0,57,0.00,,---,0.00,867.00,VWS V14.01,2013-07-16 19:00:00,
2013-07-16 15:02:00,89.1,69.8,30.19,ENE,67,0.0,3.0,53,0.00,,---,0.00,777.00,VWS V14.01,2013-07-16 19:02:00,
2013-07-16 15:07:00,89.0,70.2,30.19,WNW,294,0.0,5.0,54,0.00,,---,0.00,779.00,VWS V14.01,2013-07-16 19:07:00,
2013-07-16 15:12:00,89.0,69.7,30.19,NE,53,0.0,6.0,53,0.00,,---,0.00,768.00,VWS V14.01,2013-07-16 19:12:00,
2013-07-16 15:17:00,89.2,70.9,30.19,ESE,117,0.0,6.0,55,0.00,,---,0.00,763.00,VWS V14.01,2013-07-16 19:17:00,
2013-07-16 15:22:00,89.4,69.5,30.19,WNW,297,3.0,6.0,52,0.00,,---,0.00,747.00,VWS V14.01,2013-07-16 19:22:00,
2013-07-16 15:27:00,89.4,70.6,30.19,East,84,0.0,6.0,54,0.00,,---,0.00,740.00,VWS V14.01,2013-07-16 19:27:00,
2013-07-16 15:30:00,88.5,68.1,30.20,ENE,58,7.0,9.0,51,0.00,,---,0.00,838.00,VWS V14.01,2013-07-16 19:30:00,
2013-07-16 15:32:00,89.3,68.8,30.19,SSW,211,0.0,5.0,51,0.00,,---,0.00,721.00,VWS V14.01,2013-07-16 19:32:00,
2013-07-16 15:37:00,89.5,71.2,30.19,SW,234,0.0,5.0,55,0.00,,---,0.00,721.00,VWS V14.01,2013-07-16 19:37:00,
2013-07-16 15:42:00,89.3,69.9,30.18,WSW,257,0.0,5.0,53,0.00,,---,0.00,715.00,VWS V14.01,2013-07-16 19:42:00,
2013-07-16 15:47:00,89.2,69.8,30.19,WSW,253,0.0,5.0,53,0.00,,---,0.00,698.00,VWS V14.01,2013-07-16 19:47:00,
2013-07-16 15:52:00,88.8,68.4,30.18,NE,36,0.0,5.0,51,0.00,,---,0.00,686.00,VWS V14.01,2013-07-16 19:52:00,
2013-07-16 15:57:00,89.1,70.3,30.19,West,259,0.0,8.0,54,0.00,,---,0.00,670.00,VWS V14.01,2013-07-16 19:57:00,
2013-07-16 16:00:00,89.3,68.2,30.19,North,9,0.0,7.0,50,0.00,,---,0.00,784.00,VWS V14.01,2013-07-16 20:00:00,
2013-07-16 16:02:00,89.2,70.9,30.19,West,261,5.0,5.0,55,0.00,,---,0.00,663.00,VWS V14.01,2013-07-16 20:02:00,
2013-07-16 16:07:00,89.4,69.5,30.18,NW,321,0.0,5.0,52,0.00,,---,0.00,657.00,VWS V14.01,2013-07-16 20:07:00,
2013-07-16 16:12:00,89.1,70.8,30.18,WSW,252,1.0,8.0,55,0.00,,---,0.00,640.00,VWS V14.01,2013-07-16 20:12:00,
2013-07-16 16:17:00,89.1,71.9,30.19,ENE,77,0.0,8.0,57,0.00,,---,0.00,635.00,VWS V14.01,2013-07-16 20:17:00,
2013-07-16 16:22:00,89.0,70.2,30.18,NE,53,0.0,8.0,54,0.00,,---,0.00,615.00,VWS V14.01,2013-07-16 20:22:00,
2013-07-16 16:27:00,89.1,70.3,30.18,ENE,69,1.0,8.0,54,0.00,,---,0.00,606.00,VWS V14.01,2013-07-16 20:27:00,
2013-07-16 16:30:00,89.3,68.8,30.18,East,80,0.0,6.0,51,0.00,,---,0.00,737.00,VWS V14.01,2013-07-16 20:30:00,
2013-07-16 16:32:00,88.8,70.0,30.18,NE,49,0.0,0.0,54,0.00,,---,0.00,582.00,VWS V14.01,2013-07-16 20:32:00,
2013-07-16 16:37:00,88.7,70.5,30.19,WNW,297,3.0,6.0,55,0.00,,---,0.00,557.00,VWS V14.01,2013-07-16 20:37:00,
2013-07-16 16:42:00,88.3,70.6,30.18,WNW,284,0.0,6.0,56,0.00,,---,0.00,188.00,VWS V14.01,2013-07-16 20:42:00,
2013-07-16 16:47:00,88.0,69.8,30.18,WNW,284,0.0,6.0,55,0.00,,---,0.00,190.00,VWS V14.01,2013-07-16 20:47:00,
2013-07-16 16:52:00,87.6,70.5,30.18,WNW,284,0.0,6.0,57,0.00,,---,0.00,352.00,VWS V14.01,2013-07-16 20:52:00,
2013-07-16 16:57:00,87.7,72.1,30.18,West,268,0.0,6.0,60,0.00,,---,0.00,508.00,VWS V14.01,2013-07-16 20:57:00,
2013-07-16 17:00:00,89.2,70.4,30.19,East,94,0.0,8.0,54,0.00,,---,0.00,663.00,VWS V14.01,2013-07-16 21:00:00,
2013-07-16 17:02:00,87.9,71.3,30.18,West,268,0.0,0.0,58,0.00,,---,0.00,508.00,VWS V14.01,2013-07-16 21:02:00,
2013-07-16 17:07:00,88.4,71.8,30.18,West,268,0.0,0.0,58,0.00,,---,0.00,503.00,VWS V14.01,2013-07-16 21:07:00,
2013-07-16 17:12:00,88.7,71.5,30.18,East,83,0.0,3.0,57,0.00,,---,0.00,179.00,VWS V14.01,2013-07-16 21:12:00,
2013-07-16 17:17:00,88.6,72.4,30.18,East,83,0.0,3.0,59,0.00,,---,0.00,158.00,VWS V14.01,2013-07-16 21:17:00,
2013-07-16 17:22:00,87.8,72.2,30.18,East,83,0.0,3.0,60,0.00,,---,0.00,151.00,VWS V14.01,2013-07-16 21:22:00,
2013-07-16 17:27:00,87.4,73.3,30.18,East,83,0.0,3.0,63,0.00,,---,0.00,420.00,VWS V14.01,2013-07-16 21:27:00,
2013-07-16 17:30:00,89.0,70.8,30.18,NE,49,0.0,8.0,55,0.00,,---,0.00,585.00,VWS V14.01,2013-07-16 21:30:00,
2013-07-16 17:32:00,87.2,73.6,30.18,East,83,0.0,0.0,64,0.00,,---,0.00,135.00,VWS V14.01,2013-07-16 21:32:00,
2013-07-16 17:37:00,86.9,74.2,30.18,East,83,0.0,0.0,66,0.00,,---,0.00,137.00,VWS V14.01,2013-07-16 21:37:00,
2013-07-16 17:42:00,86.6,73.9,30.18,East,83,0.0,0.0,66,0.00,,---,0.00,134.00,VWS V14.01,2013-07-16 21:42:00,
2013-07-16 17:47:00,86.3,74.1,30.18,East,83,0.0,0.0,67,0.00,,---,0.00,357.00,VWS V14.01,2013-07-16 21:47:00,
2013-07-16 17:52:00,86.3,74.5,30.18,East,83,0.0,0.0,68,0.00,,---,0.00,163.00,VWS V14.01,2013-07-16 21:52:00,
2013-07-16 17:57:00,86.3,73.6,30.18,East,83,0.0,0.0,66,0.00,,---,0.00,229.00,VWS V14.01,2013-07-16 21:57:00,
2013-07-16 18:00:00,87.8,71.2,30.18,West,268,0.0,6.0,58,0.00,,---,0.00,503.00,VWS V14.01,2013-07-16 22:00:00,
2013-07-16 18:02:00,86.3,73.6,30.17,East,83,0.0,0.0,66,0.00,,---,0.00,155.00,VWS V14.01,2013-07-16 22:02:00,
2013-07-16 18:07:00,86.3,74.9,30.17,East,83,0.0,0.0,69,0.00,,---,0.00,121.00,VWS V14.01,2013-07-16 22:07:00,
2013-07-16 18:12:00,86.3,75.4,30.18,East,83,0.0,0.0,70,0.00,,---,0.00,86.00,VWS V14.01,2013-07-16 22:12:00,
2013-07-16 18:17:00,86.1,75.2,30.18,East,83,0.0,0.0,70,0.00,,---,0.00,76.00,VWS V14.01,2013-07-16 22:17:00,
2013-07-16 18:22:00,85.7,74.8,30.18,East,83,0.0,0.0,70,0.00,,---,0.00,76.00,VWS V14.01,2013-07-16 22:22:00,
2013-07-16 18:27:00,85.3,74.4,30.18,East,83,0.0,0.0,70,0.00,,---,0.00,74.00,VWS V14.01,2013-07-16 22:27:00,
2013-07-16 18:30:00,87.2,73.1,30.18,East,83,0.0,3.0,63,0.00,,---,0.00,141.00,VWS V14.01,2013-07-16 22:30:00,
2013-07-16 18:32:00,85.0,75.0,30.17,East,83,0.0,0.0,72,0.00,,---,0.00,74.00,VWS V14.01,2013-07-16 22:32:00,
2013-07-16 18:37:00,84.8,74.8,30.18,East,83,0.0,0.0,72,0.00,,---,0.00,62.00,VWS V14.01,2013-07-16 22:37:00,
2013-07-16 18:42:00,84.5,74.5,30.18,East,83,0.0,0.0,72,0.00,,---,0.00,77.00,VWS V14.01,2013-07-16 22:42:00,
2013-07-16 18:47:00,84.4,74.8,30.18,East,83,0.0,0.0,73,0.00,,---,0.00,53.00,VWS V14.01,2013-07-16 22:47:00,
2013-07-16 18:52:00,84.3,73.9,30.18,East,83,0.0,0.0,71,0.00,,---,0.00,53.00,VWS V14.01,2013-07-16 22:52:00,
2013-07-16 18:57:00,84.2,74.2,30.18,East,83,0.0,0.0,72,0.00,,---,0.00,42.00,VWS V14.01,2013-07-16 22:57:00,
2013-07-16 19:00:00,86.3,74.1,30.17,East,83,0.0,0.0,67,0.00,,---,0.00,158.00,VWS V14.01,2013-07-16 23:00:00,
2013-07-16 19:02:00,84.0,74.4,30.18,East,83,0.0,0.0,73,0.00,,---,0.00,37.00,VWS V14.01,2013-07-16 23:02:00,
2013-07-16 19:07:00,83.9,75.1,30.17,East,83,0.0,0.0,75,0.00,,---,0.00,33.00,VWS V14.01,2013-07-16 23:07:00,
2013-07-16 19:12:00,83.8,75.4,30.18,East,83,0.0,0.0,76,0.00,,---,0.00,32.00,VWS V14.01,2013-07-16 23:12:00,
2013-07-16 19:17:00,83.4,75.4,30.18,East,83,0.0,0.0,77,0.00,,---,0.00,30.00,VWS V14.01,2013-07-16 23:17:00,
2013-07-16 19:22:00,83.0,75.4,30.18,East,83,0.0,0.0,78,0.00,,---,0.00,28.00,VWS V14.01,2013-07-16 23:22:00,
2013-07-16 19:27:00,82.6,75.1,30.18,East,83,0.0,0.0,78,0.00,,---,0.00,26.00,VWS V14.01,2013-07-16 23:27:00,
2013-07-16 19:30:00,85.2,74.7,30.18,East,83,0.0,0.0,71,0.00,,---,0.00,77.00,VWS V14.01,2013-07-16 23:30:00,
2013-07-16 19:32:00,82.1,74.6,30.18,East,83,0.0,0.0,78,0.00,,---,0.00,25.00,VWS V14.01,2013-07-16 23:32:00,
2013-07-16 19:37:00,81.8,74.7,30.19,East,83,0.0,0.0,79,0.00,,---,0.00,23.00,VWS V14.01,2013-07-16 23:37:00,
2013-07-16 19:42:00,81.5,74.4,30.19,East,83,0.0,0.0,79,0.00,,---,0.00,21.00,VWS V14.01,2013-07-16 23:42:00,
2013-07-16 19:47:00,81.2,74.4,30.19,East,83,0.0,0.0,80,0.00,,---,0.00,19.00,VWS V14.01,2013-07-16 23:47:00,
2013-07-16 19:52:00,80.9,74.2,30.19,East,83,0.0,0.0,80,0.00,,---,0.00,16.00,VWS V14.01,2013-07-16 23:52:00,
2013-07-16 19:57:00,80.6,74.2,30.19,East,83,0.0,0.0,81,0.00,,---,0.00,14.00,VWS V14.01,2013-07-16 23:57:00,
2013-07-16 20:00:00,84.1,74.5,30.18,East,83,0.0,0.0,73,0.00,,---,0.00,39.00,VWS V14.01,2013-07-17 00:00:00,
2013-07-16 20:02:00,80.3,73.9,30.19,East,83,0.0,0.0,81,0.00,,---,0.00,11.00,VWS V14.01,2013-07-17 00:02:00,
2013-07-16 20:07:00,79.9,73.9,30.19,East,83,0.0,0.0,82,0.00,,---,0.00,9.00,VWS V14.01,2013-07-17 00:07:00,
2013-07-16 20:12:00,79.6,74.0,30.19,East,83,0.0,0.0,83,0.00,,---,0.00,7.00,VWS V14.01,2013-07-17 00:12:00,
2013-07-16 20:17:00,79.2,73.6,30.19,East,83,0.0,0.0,83,0.00,,---,0.00,5.00,VWS V14.01,2013-07-17 00:17:00,
2013-07-16 20:22:00,78.8,73.2,30.19,East,83,0.0,0.0,83,0.00,,---,0.00,0.00,VWS V14.01,2013-07-17 00:22:00,
2013-07-16 20:27:00,78.5,72.9,30.19,East,83,0.0,0.0,83,0.00,,---,0.00,0.00,VWS V14.01,2013-07-17 00:27:00,
2013-07-16 20:30:00,82.3,74.8,30.18,East,83,0.0,0.0,78,0.00,,---,0.00,25.00,VWS V14.01,2013-07-17 00:30:00,
2013-07-16 20:32:00,78.2,73.0,30.19,East,83,0.0,0.0,84,0.00,,---,0.00,0.00,VWS V14.01,2013-07-17 00:32:00,
2013-07-16 20:37:00,77.8,72.6,30.19,East,83,0.0,0.0,84,0.00,,---,0.00,0.00,VWS V14.01,2013-07-17 00:37:00,
2013-07-16 20:42:00,77.6,72.4,30.19,East,83,0.0,0.0,84,0.00,,---,0.00,0.00,VWS V14.01,2013-07-17 00:42:00,
2013-07-16 20:47:00,77.3,72.4,30.19,East,83,0.0,0.0,85,0.00,,---,0.00,0.00,VWS V14.01,2013-07-17 00:47:00,
2013-07-16 20:52:00,77.0,72.2,30.19,East,83,0.0,0.0,85,0.00,,---,0.00,0.00,VWS V14.01,2013-07-17 00:52:00,
2013-07-16 20:57:00,76.7,71.9,30.19,East,83,0.0,0.0,85,0.00,,---,0.00,0.00,VWS V14.01,2013-07-17 00:57:00,
2013-07-16 21:00:00,80.4,74.0,30.19,East,83,0.0,0.0,81,0.00,,---,0.00,12.00,VWS V14.01,2013-07-17 01:00:00,
2013-07-16 21:02:00,76.4,71.9,30.20,East,83,0.0,0.0,86,0.00,,---,0.00,0.00,VWS V14.01,2013-07-17 01:02:00,
2013-07-16 21:07:00,76.0,71.5,30.20,East,83,0.0,0.0,86,0.00,,---,0.00,0.00,VWS V14.01,2013-07-17 01:07:00,
2013-07-16 21:12:00,75.8,71.7,30.20,East,83,0.0,0.0,87,0.00,,---,0.00,0.00,VWS V14.01,2013-07-17 01:12:00,
2013-07-16 21:17:00,75.6,71.5,30.20,East,83,0.0,0.0,87,0.00,,---,0.00,0.00,VWS V14.01,2013-07-17 01:17:00,
2013-07-16 21:22:00,75.3,71.5,30.20,East,83,0.0,0.0,88,0.00,,---,0.00,0.00,VWS V14.01,2013-07-17 01:22:00,
2013-07-16 21:27:00,75.1,71.3,30.20,East,83,0.0,0.0,88,0.00,,---,0.00,0.00,VWS V14.01,2013-07-17 01:27:00,
2013-07-16 21:30:00,78.3,73.1,30.19,East,83,0.0,0.0,84,0.00,,---,0.00,0.00,VWS V14.01,2013-07-17 01:30:00,
2013-07-16 21:32:00,74.9,71.1,30.20,East,83,0.0,0.0,88,0.00,,---,0.00,0.00,VWS V14.01,2013-07-17 01:32:00,
2013-07-16 21:37:00,74.7,70.9,30.20,East,83,0.0,0.0,88,0.00,,---,0.00,0.00,VWS V14.01,2013-07-17 01:37:00,
2013-07-16 21:42:00,74.6,71.2,30.20,East,83,0.0,0.0,89,0.00,,---,0.00,0.00,VWS V14.01,2013-07-17 01:42:00,
2013-07-16 21:47:00,74.4,70.9,30.21,East,83,0.0,0.0,89,0.00,,---,0.00,0.00,VWS V14.01,2013-07-17 01:47:00,
2013-07-16 21:52:00,74.2,70.8,30.21,East,83,0.0,0.0,89,0.00,,---,0.00,0.00,VWS V14.01,2013-07-17 01:52:00,
2013-07-16 21:57:00,74.0,70.9,30.21,East,83,0.0,0.0,90,0.00,,---,0.00,0.00,VWS V14.01,2013-07-17 01:57:00,
2013-07-16 22:00:00,76.5,72.0,30.19,East,83,0.0,0.0,86,0.00,,---,0.00,0.00,VWS V14.01,2013-07-17 02:00:00,
2013-07-16 22:02:00,73.9,70.8,30.21,East,83,0.0,0.0,90,0.00,,---,0.00,0.00,VWS V14.01,2013-07-17 02:02:00,
2013-07-16 22:07:00,73.8,70.7,30.21,East,83,0.0,0.0,90,0.00,,---,0.00,0.00,VWS V14.01,2013-07-17 02:07:00,
2013-07-16 22:12:00,73.7,70.6,30.21,East,83,0.0,0.0,90,0.00,,---,0.00,0.00,VWS V14.01,2013-07-17 02:12:00,
2013-07-16 22:17:00,73.6,70.8,30.21,East,83,0.0,0.0,91,0.00,,---,0.00,0.00,VWS V14.01,2013-07-17 02:17:00,
2013-07-16 22:21:00,73.5,70.7,30.21,East,83,0.0,0.0,91,0.00,,---,0.00,0.00,VWS V14.01,2013-07-17 02:21:00,
2013-07-16 22:26:00,73.3,70.5,30.21,East,83,0.0,0.0,91,0.00,,---,0.00,0.00,VWS V14.01,2013-07-17 02:26:00,
2013-07-16 22:30:00,74.9,71.1,30.20,East,83,0.0,0.0,88,0.00,,---,0.00,0.00,VWS V14.01,2013-07-17 02:30:00,
2013-07-16 22:31:00,73.2,70.4,30.22,East,83,0.0,0.0,91,0.00,,---,0.00,0.00,VWS V14.01,2013-07-17 02:31:00,
2013-07-16 22:36:00,73.1,70.3,30.22,East,83,0.0,0.0,91,0.00,,---,0.00,0.00,VWS V14.01,2013-07-17 02:36:00,
2013-07-16 22:41:00,72.9,70.4,30.21,East,83,0.0,0.0,92,0.00,,---,0.00,0.00,VWS V14.01,2013-07-17 02:41:00,
2013-07-16 22:46:00,72.8,70.3,30.21,East,83,0.0,0.0,92,0.00,,---,0.00,0.00,VWS V14.01,2013-07-17 02:46:00,
2013-07-16 22:51:00,72.6,70.2,30.22,East,83,0.0,0.0,92,0.00,,---,0.00,0.00,VWS V14.01,2013-07-17 02:51:00,
2013-07-16 22:56:00,72.5,70.1,30.22,East,83,0.0,0.0,92,0.00,,---,0.00,0.00,VWS V14.01,2013-07-17 02:56:00,
2013-07-16 23:00:00,74.0,70.9,30.21,East,83,0.0,0.0,90,0.00,,---,0.00,0.00,VWS V14.01,2013-07-17 03:00:00,
2013-07-16 23:01:00,72.3,69.8,30.22,East,83,0.0,0.0,92,0.00,,---,0.00,0.00,VWS V14.01,2013-07-17 03:01:00,
2013-07-16 23:06:00,72.2,69.8,30.22,East,83,0.0,0.0,92,0.00,,---,0.00,0.00,VWS V14.01,2013-07-17 03:06:00,
2013-07-16 23:11:00,72.1,70.0,30.22,East,83,0.0,0.0,93,0.00,,---,0.00,0.00,VWS V14.01,2013-07-17 03:11:00,
2013-07-16 23:16:00,72.0,69.9,30.22,East,83,0.0,0.0,93,0.00,,---,0.00,0.00,VWS V14.01,2013-07-17 03:16:00,
2013-07-16 23:21:00,71.8,69.7,30.22,East,83,0.0,0.0,93,0.00,,---,0.00,0.00,VWS V14.01,2013-07-17 03:21:00,
2013-07-16 23:26:00,71.7,69.6,30.22,East,83,0.0,0.0,93,0.00,,---,0.00,0.00,VWS V14.01,2013-07-17 03:26:00,
2013-07-16 23:30:00,73.2,70.4,30.22,East,83,0.0,0.0,91,0.00,,---,0.00,0.00,VWS V14.01,2013-07-17 03:30:00,
2013-07-16 23:31:00,71.5,69.4,30.22,East,83,0.0,0.0,93,0.00,,---,0.00,0.00,VWS V14.01,2013-07-17 03:31:00,
2013-07-16 23:36:00,71.4,69.3,30.22,East,83,0.0,0.0,93,0.00,,---,0.00,0.00,VWS V14.01,2013-07-17 03:36:00,
2013-07-16 23:41:00,71.4,69.6,30.22,East,83,0.0,0.0,94,0.00,,---,0.00,0.00,VWS V14.01,2013-07-17 03:41:00,
2013-07-16 23:46:00,71.2,69.4,30.22,East,83,0.0,0.0,94,0.00,,---,0.00,0.00,VWS V14.01,2013-07-17 03:46:00,
2013-07-16 23:51:00,71.2,69.4,30.22,East,83,0.0,0.0,94,0.00,,---,0.00,0.00,VWS V14.01,2013-07-17 03:51:00,
2013-07-16 23:56:00,71.1,69.3,30.22,East,83,0.0,0.0,94,0.00,,---,0.00,0.00,VWS V14.01,2013-07-17 03:56:00,